sensor_id;sensor_type;location;lat;lon;timestamp;P1;durP1;ratioP1;P2;durP2;ratioP2
58768;SDS011;44536;47.474;19.056;2024-02-16T00:01:34;23.27;;;14.52;;
58768;SDS011;44536;47.474;19.056;2024-02-16T00:04:38;22.37;;;13.75;;
58768;SDS011;44536;47.474;19.056;2024-02-16T00:07:40;20.50;;;13.00;;
58768;SDS011;44536;47.474;19.056;2024-02-16T00:10:42;28.38;;;12.82;;
58768;SDS011;44536;47.474;19.056;2024-02-16T00:13:44;20.50;;;12.32;;
58768;SDS011;44536;47.474;19.056;2024-02-16T00:16:46;19.27;;;11.23;;
58768;SDS011;44536;47.474;19.056;2024-02-16T00:19:48;22.77;;;12.50;;
58768;SDS011;44536;47.474;19.056;2024-02-16T00:22:51;24.75;;;13.50;;
58768;SDS011;44536;47.474;19.056;2024-02-16T00:25:53;22.90;;;12.65;;
58768;SDS011;44536;47.474;19.056;2024-02-16T00:28:55;19.42;;;11.15;;
58768;SDS011;44536;47.474;19.056;2024-02-16T00:31:57;13.88;;;9.10;;
58768;SDS011;44536;47.474;19.056;2024-02-16T00:35:01;19.73;;;10.88;;
58768;SDS011;44536;47.474;19.056;2024-02-16T00:38:03;18.90;;;9.77;;
58768;SDS011;44536;47.474;19.056;2024-02-16T00:41:05;19.50;;;9.90;;
58768;SDS011;44536;47.474;19.056;2024-02-16T00:44:07;20.73;;;11.52;;
58768;SDS011;44536;47.474;19.056;2024-02-16T00:47:10;17.20;;;10.82;;
58768;SDS011;44536;47.474;19.056;2024-02-16T00:50:12;20.62;;;10.18;;
58768;SDS011;44536;47.474;19.056;2024-02-16T00:53:14;20.60;;;11.93;;
58768;SDS011;44536;47.474;19.056;2024-02-16T00:56:16;20.50;;;11.12;;
58768;SDS011;44536;47.474;19.056;2024-02-16T00:59:18;20.23;;;9.95;;
58768;SDS011;44536;47.474;19.056;2024-02-16T01:02:20;19.25;;;10.48;;
58768;SDS011;44536;47.474;19.056;2024-02-16T01:05:25;17.98;;;10.80;;
58768;SDS011;44536;47.474;19.056;2024-02-16T01:08:27;19.10;;;11.18;;
58768;SDS011;44536;47.474;19.056;2024-02-16T01:11:30;16.10;;;9.57;;
58768;SDS011;44536;47.474;19.056;2024-02-16T01:14:32;20.90;;;9.70;;
58768;SDS011;44536;47.474;19.056;2024-02-16T01:17:34;24.63;;;14.48;;
58768;SDS011;44536;47.474;19.056;2024-02-16T01:20:36;25.45;;;13.57;;
58768;SDS011;44536;47.474;19.056;2024-02-16T01:23:38;15.57;;;9.98;;
58768;SDS011;44536;47.474;19.056;2024-02-16T01:26:40;18.42;;;10.10;;
58768;SDS011;44536;47.474;19.056;2024-02-16T01:29:42;14.68;;;10.57;;
58768;SDS011;44536;47.474;19.056;2024-02-16T01:32:44;21.90;;;13.20;;
58768;SDS011;44536;47.474;19.056;2024-02-16T01:35:46;15.90;;;10.50;;
58768;SDS011;44536;47.474;19.056;2024-02-16T01:38:48;23.12;;;13.20;;
58768;SDS011;44536;47.474;19.056;2024-02-16T01:41:51;23.05;;;12.93;;
58768;SDS011;44536;47.474;19.056;2024-02-16T01:44:53;12.80;;;9.73;;
58768;SDS011;44536;47.474;19.056;2024-02-16T01:47:55;15.15;;;9.88;;
58768;SDS011;44536;47.474;19.056;2024-02-16T01:50:58;15.02;;;10.38;;
58768;SDS011;44536;47.474;19.056;2024-02-16T01:54:01;21.48;;;13.38;;
58768;SDS011;44536;47.474;19.056;2024-02-16T01:57:04;15.52;;;11.25;;
58768;SDS011;44536;47.474;19.056;2024-02-16T02:00:07;22.45;;;11.32;;
58768;SDS011;44536;47.474;19.056;2024-02-16T02:03:10;21.35;;;10.45;;
58768;SDS011;44536;47.474;19.056;2024-02-16T02:06:12;15.88;;;9.50;;
58768;SDS011;44536;47.474;19.056;2024-02-16T02:09:14;27.90;;;11.40;;
58768;SDS011;44536;47.474;19.056;2024-02-16T02:12:17;14.55;;;9.93;;
58768;SDS011;44536;47.474;19.056;2024-02-16T02:15:20;13.68;;;7.57;;
58768;SDS011;44536;47.474;19.056;2024-02-16T02:18:22;26.83;;;12.20;;
58768;SDS011;44536;47.474;19.056;2024-02-16T02:21:24;14.95;;;10.43;;
58768;SDS011;44536;47.474;19.056;2024-02-16T02:24:27;20.60;;;10.73;;
58768;SDS011;44536;47.474;19.056;2024-02-16T02:27:30;15.35;;;10.13;;
58768;SDS011;44536;47.474;19.056;2024-02-16T02:30:32;19.02;;;9.77;;
58768;SDS011;44536;47.474;19.056;2024-02-16T02:33:34;16.85;;;8.15;;
58768;SDS011;44536;47.474;19.056;2024-02-16T02:36:37;14.40;;;10.60;;
58768;SDS011;44536;47.474;19.056;2024-02-16T02:39:39;10.95;;;7.43;;
58768;SDS011;44536;47.474;19.056;2024-02-16T02:42:41;12.20;;;8.18;;
58768;SDS011;44536;47.474;19.056;2024-02-16T02:45:44;19.05;;;10.68;;
58768;SDS011;44536;47.474;19.056;2024-02-16T02:48:46;17.90;;;10.43;;
58768;SDS011;44536;47.474;19.056;2024-02-16T02:51:53;22.25;;;7.55;;
58768;SDS011;44536;47.474;19.056;2024-02-16T02:54:55;14.82;;;8.18;;
58768;SDS011;44536;47.474;19.056;2024-02-16T02:57:57;18.42;;;9.75;;
58768;SDS011;44536;47.474;19.056;2024-02-16T03:00:59;17.77;;;9.82;;
58768;SDS011;44536;47.474;19.056;2024-02-16T03:04:02;15.75;;;10.35;;
58768;SDS011;44536;47.474;19.056;2024-02-16T03:07:04;20.67;;;10.77;;
58768;SDS011;44536;47.474;19.056;2024-02-16T03:10:06;16.17;;;11.15;;
58768;SDS011;44536;47.474;19.056;2024-02-16T03:13:11;15.23;;;9.35;;
58768;SDS011;44536;47.474;19.056;2024-02-16T03:19:16;13.50;;;8.20;;
58768;SDS011;44536;47.474;19.056;2024-02-16T03:22:19;20.37;;;10.27;;
58768;SDS011;44536;47.474;19.056;2024-02-16T03:25:21;13.82;;;8.93;;
58768;SDS011;44536;47.474;19.056;2024-02-16T03:28:25;19.95;;;10.93;;
58768;SDS011;44536;47.474;19.056;2024-02-16T03:31:27;19.77;;;8.15;;
58768;SDS011;44536;47.474;19.056;2024-02-16T03:34:30;16.33;;;10.35;;
58768;SDS011;44536;47.474;19.056;2024-02-16T03:37:32;23.27;;;10.88;;
58768;SDS011;44536;47.474;19.056;2024-02-16T03:40:35;15.80;;;9.17;;
58768;SDS011;44536;47.474;19.056;2024-02-16T03:43:37;15.15;;;9.10;;
58768;SDS011;44536;47.474;19.056;2024-02-16T03:46:39;21.10;;;10.20;;
58768;SDS011;44536;47.474;19.056;2024-02-16T03:49:42;12.93;;;8.15;;
58768;SDS011;44536;47.474;19.056;2024-02-16T03:52:44;14.27;;;8.65;;
58768;SDS011;44536;47.474;19.056;2024-02-16T03:55:46;17.30;;;9.90;;
58768;SDS011;44536;47.474;19.056;2024-02-16T03:58:49;15.35;;;9.30;;
58768;SDS011;44536;47.474;19.056;2024-02-16T04:01:51;15.98;;;9.82;;
58768;SDS011;44536;47.474;19.056;2024-02-16T04:04:54;22.42;;;11.10;;
58768;SDS011;44536;47.474;19.056;2024-02-16T04:07:56;19.08;;;13.55;;
58768;SDS011;44536;47.474;19.056;2024-02-16T04:10:58;14.75;;;9.60;;
58768;SDS011;44536;47.474;19.056;2024-02-16T04:14:00;12.98;;;9.63;;
58768;SDS011;44536;47.474;19.056;2024-02-16T04:17:02;17.12;;;10.13;;
58768;SDS011;44536;47.474;19.056;2024-02-16T04:20:04;15.45;;;9.80;;
58768;SDS011;44536;47.474;19.056;2024-02-16T04:23:07;17.95;;;10.85;;
58768;SDS011;44536;47.474;19.056;2024-02-16T04:26:08;16.67;;;10.55;;
58768;SDS011;44536;47.474;19.056;2024-02-16T04:29:11;15.80;;;8.50;;
58768;SDS011;44536;47.474;19.056;2024-02-16T04:32:13;12.07;;;10.63;;
58768;SDS011;44536;47.474;19.056;2024-02-16T04:35:15;15.13;;;9.93;;
58768;SDS011;44536;47.474;19.056;2024-02-16T04:38:19;21.73;;;13.10;;
58768;SDS011;44536;47.474;19.056;2024-02-16T04:41:21;14.43;;;11.10;;
58768;SDS011;44536;47.474;19.056;2024-02-16T04:44:23;17.87;;;10.25;;
58768;SDS011;44536;47.474;19.056;2024-02-16T04:47:26;19.37;;;10.75;;
58768;SDS011;44536;47.474;19.056;2024-02-16T04:50:28;14.15;;;10.70;;
58768;SDS011;44536;47.474;19.056;2024-02-16T04:53:30;17.98;;;10.63;;
58768;SDS011;44536;47.474;19.056;2024-02-16T04:56:33;16.00;;;9.32;;
58768;SDS011;44536;47.474;19.056;2024-02-16T04:59:35;15.13;;;11.45;;
58768;SDS011;44536;47.474;19.056;2024-02-16T05:02:37;27.80;;;13.00;;
58768;SDS011;44536;47.474;19.056;2024-02-16T05:05:39;21.60;;;13.15;;
58768;SDS011;44536;47.474;19.056;2024-02-16T05:08:41;21.17;;;11.10;;
58768;SDS011;44536;47.474;19.056;2024-02-16T05:11:44;18.60;;;13.62;;
58768;SDS011;44536;47.474;19.056;2024-02-16T05:14:48;21.05;;;14.40;;
58768;SDS011;44536;47.474;19.056;2024-02-16T05:17:51;18.00;;;12.75;;
58768;SDS011;44536;47.474;19.056;2024-02-16T05:20:54;20.08;;;11.18;;
58768;SDS011;44536;47.474;19.056;2024-02-16T05:23:57;13.57;;;9.05;;
58768;SDS011;44536;47.474;19.056;2024-02-16T05:26:59;18.15;;;10.80;;
58768;SDS011;44536;47.474;19.056;2024-02-16T05:30:01;23.35;;;11.07;;
58768;SDS011;44536;47.474;19.056;2024-02-16T05:33:08;16.55;;;9.63;;
58768;SDS011;44536;47.474;19.056;2024-02-16T05:36:10;19.77;;;12.43;;
58768;SDS011;44536;47.474;19.056;2024-02-16T05:39:12;20.15;;;11.65;;
58768;SDS011;44536;47.474;19.056;2024-02-16T05:42:29;24.33;;;12.10;;
58768;SDS011;44536;47.474;19.056;2024-02-16T05:45:31;24.60;;;13.98;;
58768;SDS011;44536;47.474;19.056;2024-02-16T05:48:33;21.98;;;13.30;;
58768;SDS011;44536;47.474;19.056;2024-02-16T05:51:40;19.30;;;11.95;;
58768;SDS011;44536;47.474;19.056;2024-02-16T05:54:45;16.30;;;11.95;;
58768;SDS011;44536;47.474;19.056;2024-02-16T05:57:47;15.37;;;9.83;;
58768;SDS011;44536;47.474;19.056;2024-02-16T06:00:49;19.48;;;13.50;;
58768;SDS011;44536;47.474;19.056;2024-02-16T06:04:00;22.83;;;11.63;;
58768;SDS011;44536;47.474;19.056;2024-02-16T06:07:02;15.63;;;10.80;;
58768;SDS011;44536;47.474;19.056;2024-02-16T06:10:04;23.12;;;12.95;;
58768;SDS011;44536;47.474;19.056;2024-02-16T06:13:09;18.33;;;11.07;;
58768;SDS011;44536;47.474;19.056;2024-02-16T06:16:11;13.32;;;8.48;;
58768;SDS011;44536;47.474;19.056;2024-02-16T06:19:13;17.45;;;12.18;;
58768;SDS011;44536;47.474;19.056;2024-02-16T06:22:16;17.33;;;11.10;;
58768;SDS011;44536;47.474;19.056;2024-02-16T06:25:18;14.68;;;10.52;;
58768;SDS011;44536;47.474;19.056;2024-02-16T06:28:21;19.42;;;12.43;;
58768;SDS011;44536;47.474;19.056;2024-02-16T06:31:24;15.43;;;10.85;;
58768;SDS011;44536;47.474;19.056;2024-02-16T06:34:26;20.40;;;12.30;;
58768;SDS011;44536;47.474;19.056;2024-02-16T06:37:29;21.02;;;14.87;;
58768;SDS011;44536;47.474;19.056;2024-02-16T06:40:31;16.48;;;10.95;;
58768;SDS011;44536;47.474;19.056;2024-02-16T06:43:33;37.13;;;13.27;;
58768;SDS011;44536;47.474;19.056;2024-02-16T06:46:36;21.33;;;12.35;;
58768;SDS011;44536;47.474;19.056;2024-02-16T06:49:37;23.17;;;12.95;;
58768;SDS011;44536;47.474;19.056;2024-02-16T06:52:40;20.65;;;12.77;;
58768;SDS011;44536;47.474;19.056;2024-02-16T06:55:46;24.23;;;15.10;;
58768;SDS011;44536;47.474;19.056;2024-02-16T06:58:48;25.90;;;12.73;;
58768;SDS011;44536;47.474;19.056;2024-02-16T07:01:50;26.98;;;12.43;;
58768;SDS011;44536;47.474;19.056;2024-02-16T07:04:52;20.30;;;11.15;;
58768;SDS011;44536;47.474;19.056;2024-02-16T07:07:54;28.30;;;15.57;;
58768;SDS011;44536;47.474;19.056;2024-02-16T07:10:57;22.13;;;11.98;;
58768;SDS011;44536;47.474;19.056;2024-02-16T07:13:59;23.77;;;13.02;;
58768;SDS011;44536;47.474;19.056;2024-02-16T07:17:04;15.50;;;11.55;;
58768;SDS011;44536;47.474;19.056;2024-02-16T07:20:09;20.02;;;14.10;;
58768;SDS011;44536;47.474;19.056;2024-02-16T07:23:11;22.98;;;10.82;;
58768;SDS011;44536;47.474;19.056;2024-02-16T07:26:13;21.15;;;12.18;;
58768;SDS011;44536;47.474;19.056;2024-02-16T07:29:16;32.50;;;15.23;;
58768;SDS011;44536;47.474;19.056;2024-02-16T07:32:18;22.30;;;14.63;;
58768;SDS011;44536;47.474;19.056;2024-02-16T07:35:21;21.10;;;12.25;;
58768;SDS011;44536;47.474;19.056;2024-02-16T07:38:26;21.58;;;12.07;;
58768;SDS011;44536;47.474;19.056;2024-02-16T07:41:30;22.35;;;10.43;;
58768;SDS011;44536;47.474;19.056;2024-02-16T07:44:32;20.25;;;12.57;;
58768;SDS011;44536;47.474;19.056;2024-02-16T07:47:34;19.35;;;13.98;;
58768;SDS011;44536;47.474;19.056;2024-02-16T07:50:36;21.58;;;11.75;;
58768;SDS011;44536;47.474;19.056;2024-02-16T07:53:38;19.67;;;11.70;;
58768;SDS011;44536;47.474;19.056;2024-02-16T07:56:42;16.30;;;11.07;;
58768;SDS011;44536;47.474;19.056;2024-02-16T07:59:45;24.17;;;15.55;;
58768;SDS011;44536;47.474;19.056;2024-02-16T08:02:47;17.52;;;12.37;;
58768;SDS011;44536;47.474;19.056;2024-02-16T08:05:49;21.70;;;12.70;;
58768;SDS011;44536;47.474;19.056;2024-02-16T08:08:51;19.85;;;13.68;;
58768;SDS011;44536;47.474;19.056;2024-02-16T08:11:54;21.67;;;12.70;;
58768;SDS011;44536;47.474;19.056;2024-02-16T08:14:56;23.83;;;14.25;;
58768;SDS011;44536;47.474;19.056;2024-02-16T08:18:01;18.65;;;11.65;;
58768;SDS011;44536;47.474;19.056;2024-02-16T08:21:04;26.98;;;11.95;;
58768;SDS011;44536;47.474;19.056;2024-02-16T08:24:06;21.62;;;10.50;;
58768;SDS011;44536;47.474;19.056;2024-02-16T08:27:08;22.17;;;14.80;;
58768;SDS011;44536;47.474;19.056;2024-02-16T08:30:11;16.20;;;7.72;;
58768;SDS011;44536;47.474;19.056;2024-02-16T08:33:13;15.60;;;13.57;;
58768;SDS011;44536;47.474;19.056;2024-02-16T08:36:16;15.10;;;8.27;;
58768;SDS011;44536;47.474;19.056;2024-02-16T08:39:18;16.17;;;9.63;;
58768;SDS011;44536;47.474;19.056;2024-02-16T08:42:27;18.25;;;9.93;;
58768;SDS011;44536;47.474;19.056;2024-02-16T08:45:29;11.00;;;5.12;;
58768;SDS011;44536;47.474;19.056;2024-02-16T08:48:34;13.25;;;8.95;;
58768;SDS011;44536;47.474;19.056;2024-02-16T08:51:37;14.55;;;8.05;;
58768;SDS011;44536;47.474;19.056;2024-02-16T08:54:44;15.55;;;7.80;;
58768;SDS011;44536;47.474;19.056;2024-02-16T08:57:46;12.23;;;6.57;;
58768;SDS011;44536;47.474;19.056;2024-02-16T09:00:50;8.63;;;5.47;;
58768;SDS011;44536;47.474;19.056;2024-02-16T09:03:52;17.92;;;9.10;;
58768;SDS011;44536;47.474;19.056;2024-02-16T09:06:57;19.95;;;9.57;;
58768;SDS011;44536;47.474;19.056;2024-02-16T09:09:59;13.98;;;7.43;;
58768;SDS011;44536;47.474;19.056;2024-02-16T09:13:02;21.62;;;6.47;;
58768;SDS011;44536;47.474;19.056;2024-02-16T09:16:05;15.60;;;6.82;;
58768;SDS011;44536;47.474;19.056;2024-02-16T09:19:07;17.75;;;6.75;;
58768;SDS011;44536;47.474;19.056;2024-02-16T09:22:09;15.40;;;7.37;;
58768;SDS011;44536;47.474;19.056;2024-02-16T09:25:11;11.60;;;6.00;;
58768;SDS011;44536;47.474;19.056;2024-02-16T09:28:16;12.10;;;6.45;;
58768;SDS011;44536;47.474;19.056;2024-02-16T09:31:31;8.38;;;5.25;;
58768;SDS011;44536;47.474;19.056;2024-02-16T09:34:34;13.02;;;7.60;;
58768;SDS011;44536;47.474;19.056;2024-02-16T09:40:40;15.68;;;8.23;;
58768;SDS011;44536;47.474;19.056;2024-02-16T09:43:42;14.32;;;7.07;;
58768;SDS011;44536;47.474;19.056;2024-02-16T09:46:44;16.70;;;10.38;;
58768;SDS011;44536;47.474;19.056;2024-02-16T09:49:47;7.97;;;4.57;;
58768;SDS011;44536;47.474;19.056;2024-02-16T09:52:50;13.55;;;7.82;;
58768;SDS011;44536;47.474;19.056;2024-02-16T09:55:52;12.73;;;6.70;;
58768;SDS011;44536;47.474;19.056;2024-02-16T09:58:54;14.93;;;6.78;;
58768;SDS011;44536;47.474;19.056;2024-02-16T10:02:04;15.93;;;7.22;;
58768;SDS011;44536;47.474;19.056;2024-02-16T10:08:15;16.10;;;8.05;;
58768;SDS011;44536;47.474;19.056;2024-02-16T10:11:18;15.82;;;7.75;;
58768;SDS011;44536;47.474;19.056;2024-02-16T10:14:23;13.45;;;7.82;;
58768;SDS011;44536;47.474;19.056;2024-02-16T10:17:27;13.70;;;7.50;;
58768;SDS011;44536;47.474;19.056;2024-02-16T10:20:29;13.82;;;8.13;;
58768;SDS011;44536;47.474;19.056;2024-02-16T10:23:31;12.85;;;8.23;;
58768;SDS011;44536;47.474;19.056;2024-02-16T10:26:37;13.52;;;8.65;;
58768;SDS011;44536;47.474;19.056;2024-02-16T10:29:39;16.70;;;10.13;;
58768;SDS011;44536;47.474;19.056;2024-02-16T10:32:42;15.25;;;9.07;;
58768;SDS011;44536;47.474;19.056;2024-02-16T10:35:45;13.38;;;9.85;;
58768;SDS011;44536;47.474;19.056;2024-02-16T10:38:48;13.35;;;7.78;;
58768;SDS011;44536;47.474;19.056;2024-02-16T10:41:51;12.52;;;7.12;;
58768;SDS011;44536;47.474;19.056;2024-02-16T10:44:53;12.55;;;7.35;;
58768;SDS011;44536;47.474;19.056;2024-02-16T10:47:57;14.35;;;8.02;;
58768;SDS011;44536;47.474;19.056;2024-02-16T10:50:59;14.13;;;8.80;;
58768;SDS011;44536;47.474;19.056;2024-02-16T10:54:01;12.82;;;8.20;;
58768;SDS011;44536;47.474;19.056;2024-02-16T10:57:07;12.98;;;8.07;;
58768;SDS011;44536;47.474;19.056;2024-02-16T11:00:15;13.27;;;8.95;;
58768;SDS011;44536;47.474;19.056;2024-02-16T11:03:23;16.75;;;7.85;;
58768;SDS011;44536;47.474;19.056;2024-02-16T11:06:26;13.00;;;7.55;;
58768;SDS011;44536;47.474;19.056;2024-02-16T11:09:37;11.77;;;7.82;;
58768;SDS011;44536;47.474;19.056;2024-02-16T11:12:42;11.85;;;8.32;;
58768;SDS011;44536;47.474;19.056;2024-02-16T11:15:47;14.57;;;8.10;;
58768;SDS011;44536;47.474;19.056;2024-02-16T11:18:58;13.25;;;7.53;;
58768;SDS011;44536;47.474;19.056;2024-02-16T11:22:04;12.93;;;8.40;;
58768;SDS011;44536;47.474;19.056;2024-02-16T11:25:10;12.77;;;7.72;;
58768;SDS011;44536;47.474;19.056;2024-02-16T11:28:12;12.30;;;6.72;;
58768;SDS011;44536;47.474;19.056;2024-02-16T11:31:15;15.73;;;8.07;;
58768;SDS011;44536;47.474;19.056;2024-02-16T11:34:21;13.40;;;9.40;;
58768;SDS011;44536;47.474;19.056;2024-02-16T11:37:23;12.68;;;7.50;;
58768;SDS011;44536;47.474;19.056;2024-02-16T11:40:25;11.95;;;7.75;;
58768;SDS011;44536;47.474;19.056;2024-02-16T11:43:28;13.40;;;8.67;;
58768;SDS011;44536;47.474;19.056;2024-02-16T11:46:31;13.27;;;8.23;;
58768;SDS011;44536;47.474;19.056;2024-02-16T11:49:33;14.48;;;9.23;;
58768;SDS011;44536;47.474;19.056;2024-02-16T11:52:35;14.87;;;9.63;;
58768;SDS011;44536;47.474;19.056;2024-02-16T11:55:37;14.85;;;8.63;;
58768;SDS011;44536;47.474;19.056;2024-02-16T11:58:40;11.82;;;7.53;;
58768;SDS011;44536;47.474;19.056;2024-02-16T12:01:52;13.98;;;7.28;;
58768;SDS011;44536;47.474;19.056;2024-02-16T12:04:58;12.52;;;8.00;;
58768;SDS011;44536;47.474;19.056;2024-02-16T12:08:05;12.10;;;7.15;;
58768;SDS011;44536;47.474;19.056;2024-02-16T12:14:10;13.98;;;9.38;;
58768;SDS011;44536;47.474;19.056;2024-02-16T12:17:14;12.07;;;7.30;;
58768;SDS011;44536;47.474;19.056;2024-02-16T12:20:16;12.95;;;8.30;;
58768;SDS011;44536;47.474;19.056;2024-02-16T12:23:20;12.05;;;7.03;;
58768;SDS011;44536;47.474;19.056;2024-02-16T12:26:22;10.93;;;7.10;;
58768;SDS011;44536;47.474;19.056;2024-02-16T12:29:25;13.67;;;8.47;;
58768;SDS011;44536;47.474;19.056;2024-02-16T12:32:27;10.40;;;7.20;;
58768;SDS011;44536;47.474;19.056;2024-02-16T12:35:30;10.63;;;7.07;;
58768;SDS011;44536;47.474;19.056;2024-02-16T12:38:32;12.50;;;7.95;;
58768;SDS011;44536;47.474;19.056;2024-02-16T12:41:34;11.52;;;8.27;;
58768;SDS011;44536;47.474;19.056;2024-02-16T12:44:37;9.98;;;6.62;;
58768;SDS011;44536;47.474;19.056;2024-02-16T12:47:39;12.40;;;7.43;;
58768;SDS011;44536;47.474;19.056;2024-02-16T12:50:41;13.40;;;8.60;;
58768;SDS011;44536;47.474;19.056;2024-02-16T12:53:44;12.37;;;7.70;;
58768;SDS011;44536;47.474;19.056;2024-02-16T12:56:48;12.43;;;8.15;;
58768;SDS011;44536;47.474;19.056;2024-02-16T13:00:01;13.27;;;8.02;;
58768;SDS011;44536;47.474;19.056;2024-02-16T13:03:08;11.40;;;7.07;;
58768;SDS011;44536;47.474;19.056;2024-02-16T13:06:11;10.90;;;6.47;;
58768;SDS011;44536;47.474;19.056;2024-02-16T13:09:13;10.43;;;6.30;;
58768;SDS011;44536;47.474;19.056;2024-02-16T13:12:16;10.70;;;5.53;;
58768;SDS011;44536;47.474;19.056;2024-02-16T13:15:20;11.63;;;6.30;;
58768;SDS011;44536;47.474;19.056;2024-02-16T13:18:30;9.70;;;5.80;;
58768;SDS011;44536;47.474;19.056;2024-02-16T13:21:32;11.82;;;5.35;;
58768;SDS011;44536;47.474;19.056;2024-02-16T13:24:34;12.48;;;5.43;;
58768;SDS011;44536;47.474;19.056;2024-02-16T13:27:37;9.97;;;6.10;;
58768;SDS011;44536;47.474;19.056;2024-02-16T13:30:40;13.68;;;7.35;;
58768;SDS011;44536;47.474;19.056;2024-02-16T13:33:43;10.60;;;5.55;;
58768;SDS011;44536;47.474;19.056;2024-02-16T13:36:45;12.95;;;6.95;;
58768;SDS011;44536;47.474;19.056;2024-02-16T13:39:47;12.35;;;6.57;;
58768;SDS011;44536;47.474;19.056;2024-02-16T13:42:49;13.35;;;7.30;;
58768;SDS011;44536;47.474;19.056;2024-02-16T13:45:53;14.00;;;7.07;;
58768;SDS011;44536;47.474;19.056;2024-02-16T13:48:56;12.10;;;6.55;;
58768;SDS011;44536;47.474;19.056;2024-02-16T13:51:59;12.90;;;6.57;;
58768;SDS011;44536;47.474;19.056;2024-02-16T13:55:02;13.35;;;7.22;;
58768;SDS011;44536;47.474;19.056;2024-02-16T13:58:04;12.10;;;6.82;;
58768;SDS011;44536;47.474;19.056;2024-02-16T14:01:07;11.85;;;7.15;;
58768;SDS011;44536;47.474;19.056;2024-02-16T14:04:09;10.93;;;6.28;;
58768;SDS011;44536;47.474;19.056;2024-02-16T14:07:12;12.17;;;8.30;;
58768;SDS011;44536;47.474;19.056;2024-02-16T14:10:14;9.95;;;5.55;;
58768;SDS011;44536;47.474;19.056;2024-02-16T14:13:16;10.73;;;7.65;;
58768;SDS011;44536;47.474;19.056;2024-02-16T14:16:18;10.50;;;5.90;;
58768;SDS011;44536;47.474;19.056;2024-02-16T14:19:20;10.00;;;6.03;;
58768;SDS011;44536;47.474;19.056;2024-02-16T14:22:23;12.60;;;7.25;;
58768;SDS011;44536;47.474;19.056;2024-02-16T14:25:25;10.80;;;6.37;;
58768;SDS011;44536;47.474;19.056;2024-02-16T14:28:28;11.95;;;6.70;;
58768;SDS011;44536;47.474;19.056;2024-02-16T14:31:29;11.40;;;5.22;;
58768;SDS011;44536;47.474;19.056;2024-02-16T14:34:32;10.00;;;5.68;;
58768;SDS011;44536;47.474;19.056;2024-02-16T14:37:34;11.02;;;5.30;;
58768;SDS011;44536;47.474;19.056;2024-02-16T14:40:36;12.23;;;6.28;;
58768;SDS011;44536;47.474;19.056;2024-02-16T14:43:38;8.90;;;4.57;;
58768;SDS011;44536;47.474;19.056;2024-02-16T14:46:40;9.60;;;4.55;;
58768;SDS011;44536;47.474;19.056;2024-02-16T14:49:42;10.95;;;5.65;;
58768;SDS011;44536;47.474;19.056;2024-02-16T14:52:44;10.73;;;5.70;;
58768;SDS011;44536;47.474;19.056;2024-02-16T14:55:48;14.47;;;6.27;;
58768;SDS011;44536;47.474;19.056;2024-02-16T14:58:50;6.60;;;3.65;;
58768;SDS011;44536;47.474;19.056;2024-02-16T15:01:52;7.22;;;3.90;;
58768;SDS011;44536;47.474;19.056;2024-02-16T15:04:55;13.02;;;3.65;;
58768;SDS011;44536;47.474;19.056;2024-02-16T15:07:57;7.03;;;4.15;;
58768;SDS011;44536;47.474;19.056;2024-02-16T15:10:59;7.25;;;2.97;;
58768;SDS011;44536;47.474;19.056;2024-02-16T15:14:01;10.05;;;4.82;;
58768;SDS011;44536;47.474;19.056;2024-02-16T15:17:03;9.55;;;5.20;;
58768;SDS011;44536;47.474;19.056;2024-02-16T15:20:08;10.48;;;5.50;;
58768;SDS011;44536;47.474;19.056;2024-02-16T15:23:10;6.47;;;3.62;;
58768;SDS011;44536;47.474;19.056;2024-02-16T15:26:12;10.35;;;4.72;;
58768;SDS011;44536;47.474;19.056;2024-02-16T15:29:14;9.02;;;5.45;;
58768;SDS011;44536;47.474;19.056;2024-02-16T15:32:16;7.65;;;3.75;;
58768;SDS011;44536;47.474;19.056;2024-02-16T15:35:19;9.75;;;4.87;;
58768;SDS011;44536;47.474;19.056;2024-02-16T15:38:21;11.80;;;6.25;;
58768;SDS011;44536;47.474;19.056;2024-02-16T15:41:23;10.90;;;5.72;;
58768;SDS011;44536;47.474;19.056;2024-02-16T15:44:25;11.32;;;3.53;;
58768;SDS011;44536;47.474;19.056;2024-02-16T15:47:27;10.80;;;5.70;;
58768;SDS011;44536;47.474;19.056;2024-02-16T15:50:29;10.55;;;5.87;;
58768;SDS011;44536;47.474;19.056;2024-02-16T15:53:35;7.97;;;4.47;;
58768;SDS011;44536;47.474;19.056;2024-02-16T15:56:38;11.40;;;6.20;;
58768;SDS011;44536;47.474;19.056;2024-02-16T15:59:40;13.38;;;5.93;;
58768;SDS011;44536;47.474;19.056;2024-02-16T16:02:42;10.50;;;6.22;;
58768;SDS011;44536;47.474;19.056;2024-02-16T16:05:44;12.88;;;5.30;;
58768;SDS011;44536;47.474;19.056;2024-02-16T16:08:46;7.00;;;4.50;;
58768;SDS011;44536;47.474;19.056;2024-02-16T16:11:48;11.07;;;6.22;;
58768;SDS011;44536;47.474;19.056;2024-02-16T16:14:50;12.50;;;7.55;;
58768;SDS011;44536;47.474;19.056;2024-02-16T16:17:53;8.68;;;5.85;;
58768;SDS011;44536;47.474;19.056;2024-02-16T16:20:55;12.32;;;6.18;;
58768;SDS011;44536;47.474;19.056;2024-02-16T16:23:57;14.40;;;8.88;;
58768;SDS011;44536;47.474;19.056;2024-02-16T16:26:59;12.63;;;8.05;;
58768;SDS011;44536;47.474;19.056;2024-02-16T16:30:02;12.98;;;6.97;;
58768;SDS011;44536;47.474;19.056;2024-02-16T16:33:04;14.87;;;7.93;;
58768;SDS011;44536;47.474;19.056;2024-02-16T16:36:06;12.80;;;7.30;;
58768;SDS011;44536;47.474;19.056;2024-02-16T16:39:15;15.70;;;7.70;;
58768;SDS011;44536;47.474;19.056;2024-02-16T16:42:19;11.95;;;7.25;;
58768;SDS011;44536;47.474;19.056;2024-02-16T16:45:21;11.38;;;7.10;;
58768;SDS011;44536;47.474;19.056;2024-02-16T16:48:23;13.23;;;8.25;;
58768;SDS011;44536;47.474;19.056;2024-02-16T16:51:26;15.68;;;8.23;;
58768;SDS011;44536;47.474;19.056;2024-02-16T16:54:28;13.73;;;7.55;;
58768;SDS011;44536;47.474;19.056;2024-02-16T16:57:31;11.85;;;7.60;;
58768;SDS011;44536;47.474;19.056;2024-02-16T17:00:34;14.23;;;7.90;;
58768;SDS011;44536;47.474;19.056;2024-02-16T17:03:36;11.65;;;6.68;;
58768;SDS011;44536;47.474;19.056;2024-02-16T17:06:38;10.45;;;7.18;;
58768;SDS011;44536;47.474;19.056;2024-02-16T17:09:40;12.85;;;7.43;;
58768;SDS011;44536;47.474;19.056;2024-02-16T17:12:43;12.80;;;6.78;;
58768;SDS011;44536;47.474;19.056;2024-02-16T17:15:47;13.05;;;6.97;;
58768;SDS011;44536;47.474;19.056;2024-02-16T17:18:49;11.30;;;6.40;;
58768;SDS011;44536;47.474;19.056;2024-02-16T17:21:51;12.70;;;5.60;;
58768;SDS011;44536;47.474;19.056;2024-02-16T17:24:53;10.93;;;6.30;;
58768;SDS011;44536;47.474;19.056;2024-02-16T17:27:55;10.95;;;5.87;;
58768;SDS011;44536;47.474;19.056;2024-02-16T17:30:58;15.47;;;7.47;;
58768;SDS011;44536;47.474;19.056;2024-02-16T17:34:00;18.27;;;10.07;;
58768;SDS011;44536;47.474;19.056;2024-02-16T17:37:10;14.13;;;6.85;;
58768;SDS011;44536;47.474;19.056;2024-02-16T17:40:12;15.75;;;5.95;;
58768;SDS011;44536;47.474;19.056;2024-02-16T17:43:15;11.65;;;5.87;;
58768;SDS011;44536;47.474;19.056;2024-02-16T17:46:17;11.25;;;7.60;;
58768;SDS011;44536;47.474;19.056;2024-02-16T17:49:19;11.90;;;5.90;;
58768;SDS011;44536;47.474;19.056;2024-02-16T17:52:21;12.73;;;7.72;;
58768;SDS011;44536;47.474;19.056;2024-02-16T17:55:23;10.88;;;7.68;;
58768;SDS011;44536;47.474;19.056;2024-02-16T17:58:25;12.63;;;7.93;;